createdAt,value
2023-03-02T00:02:53.681Z,10.40
2023-03-02T00:05:42.305Z,13.00
2023-03-02T00:08:30.321Z,14.70
2023-03-02T00:11:18.392Z,13.90
2023-03-02T00:14:07.356Z,14.40
2023-03-02T00:16:54.965Z,14.40
2023-03-02T00:19:44.907Z,17.00
2023-03-02T00:22:33.155Z,14.70
2023-03-02T00:25:21.665Z,12.70
2023-03-02T00:28:09.410Z,12.60
2023-03-02T00:30:57.688Z,12.30
2023-03-02T00:33:45.869Z,10.50
2023-03-02T00:36:33.647Z,10.60
2023-03-02T00:39:21.276Z,13.60
2023-03-02T00:42:09.175Z,11.10
2023-03-02T00:45:01.529Z,15.00
2023-03-02T00:47:49.625Z,13.20
2023-03-02T00:50:41.548Z,13.40
2023-03-02T00:53:29.383Z,12.20
2023-03-02T00:56:17.395Z,12.00
2023-03-02T00:59:26.711Z,11.70
2023-03-02T01:02:44.193Z,11.30
2023-03-02T01:05:37.315Z,10.90
2023-03-02T01:08:25.573Z,9.80
2023-03-02T01:11:20.336Z,11.00
2023-03-02T01:14:07.914Z,9.20
2023-03-02T01:16:55.954Z,9.50
2023-03-02T01:19:44.918Z,11.80
2023-03-02T01:22:32.553Z,10.60
2023-03-02T01:25:20.514Z,9.60
2023-03-02T01:28:08.194Z,11.90
2023-03-02T01:30:56.215Z,9.40
2023-03-02T01:33:43.951Z,9.20
2023-03-02T01:36:32.185Z,7.50
2023-03-02T01:39:22.534Z,9.50
2023-03-02T01:42:10.413Z,10.40
2023-03-02T01:44:59.583Z,11.00
2023-03-02T01:47:47.554Z,8.20
2023-03-02T01:50:37.933Z,13.10
2023-03-02T01:53:29.651Z,10.20
2023-03-02T01:56:23.842Z,9.20
2023-03-02T01:59:20.430Z,9.70
2023-03-02T02:02:11.652Z,8.40
2023-03-02T02:04:59.422Z,9.30
2023-03-02T02:07:47.917Z,8.10
2023-03-02T02:10:36.872Z,10.70
2023-03-02T02:13:25.142Z,8.50
2023-03-02T02:16:13.084Z,20.90
2023-03-02T02:19:02.872Z,50.80
2023-03-02T02:21:50.742Z,128.40
2023-03-02T02:24:59.498Z,147.60
2023-03-02T02:27:48.108Z,144.30
2023-03-02T02:30:40.776Z,144.80
2023-03-02T02:33:29.219Z,149.80
2023-03-02T02:36:25.299Z,119.10
2023-03-02T02:39:31.467Z,68.50
2023-03-02T02:42:27.497Z,37.60
2023-03-02T02:45:25.105Z,17.80
2023-03-02T02:48:18.774Z,15.70
2023-03-02T02:51:12.983Z,8.00
2023-03-02T02:54:04.176Z,9.00
2023-03-02T02:56:58.531Z,11.20
2023-03-02T02:59:52.565Z,7.60
2023-03-02T03:02:45.867Z,9.00
2023-03-02T03:05:33.969Z,7.90
2023-03-02T03:08:46.256Z,9.50
2023-03-02T03:11:44.804Z,8.30
2023-03-02T03:14:41.661Z,9.80
2023-03-02T03:17:30.764Z,7.70
2023-03-02T03:20:23.103Z,8.20
2023-03-02T03:23:10.988Z,10.00
2023-03-02T03:25:59.023Z,22.10
2023-03-02T03:28:47.028Z,15.30
2023-03-02T03:31:35.609Z,13.70
2023-03-02T03:34:25.830Z,16.10
2023-03-02T03:37:18.973Z,17.20
2023-03-02T03:40:09.913Z,17.30
2023-03-02T03:42:59.279Z,17.90
2023-03-02T03:45:47.826Z,18.40
2023-03-02T03:48:35.716Z,18.20
2023-03-02T03:51:24.719Z,13.80
2023-03-02T03:54:12.477Z,12.90
2023-03-02T03:57:01.422Z,8.40
2023-03-02T03:59:49.438Z,7.90
2023-03-02T04:02:38.250Z,8.90
2023-03-02T04:05:26.927Z,6.90
2023-03-02T04:08:15.831Z,7.20
2023-03-02T04:11:03.821Z,7.40
2023-03-02T04:13:51.811Z,6.40
2023-03-02T04:16:41.267Z,9.40
2023-03-02T04:19:29.387Z,7.50
2023-03-02T04:22:20.124Z,7.90
2023-03-02T04:25:08.879Z,6.10
2023-03-02T04:27:57.315Z,6.40
2023-03-02T04:30:48.990Z,6.90
2023-03-02T04:33:36.988Z,7.60
2023-03-02T04:36:26.008Z,5.70
2023-03-02T04:39:17.359Z,5.90
2023-03-02T04:42:12.077Z,8.40
2023-03-02T04:44:59.905Z,6.30
2023-03-02T04:47:47.765Z,8.30
2023-03-02T04:50:35.936Z,6.00
2023-03-02T04:53:23.987Z,8.20
2023-03-02T04:56:12.054Z,6.90
2023-03-02T04:59:00.336Z,7.00
2023-03-02T05:01:48.882Z,5.50
2023-03-02T05:04:37.268Z,5.50
2023-03-02T05:07:25.576Z,6.40
2023-03-02T05:10:16.685Z,6.20
2023-03-02T05:13:05.910Z,6.30
2023-03-02T05:15:54.037Z,6.80
2023-03-02T05:18:42.290Z,6.20
2023-03-02T05:21:30.589Z,8.10
2023-03-02T05:24:19.114Z,5.90
2023-03-02T05:27:07.034Z,7.00
2023-03-02T05:29:55.146Z,5.90
2023-03-02T05:32:43.359Z,7.30
2023-03-02T05:35:31.471Z,5.70
2023-03-02T05:38:19.369Z,10.20
2023-03-02T05:41:08.547Z,6.70
2023-03-02T05:43:57.070Z,8.80
2023-03-02T05:46:45.432Z,8.00
2023-03-02T05:49:33.305Z,8.50
2023-03-02T05:52:21.271Z,9.70
2023-03-02T05:55:09.595Z,9.10
2023-03-02T05:57:57.764Z,10.10
2023-03-02T06:00:47.429Z,9.40
2023-03-02T06:03:35.209Z,8.20
2023-03-02T06:06:22.785Z,9.30
2023-03-02T06:09:10.730Z,11.30
2023-03-02T06:11:59.350Z,9.50
2023-03-02T06:14:47.167Z,10.10
2023-03-02T06:17:35.817Z,10.10
2023-03-02T06:20:24.003Z,12.80
2023-03-02T06:23:12.200Z,11.90
2023-03-02T06:26:00.221Z,10.80
2023-03-02T06:28:53.569Z,8.90
2023-03-02T06:31:41.884Z,8.90
2023-03-02T06:34:29.695Z,11.30
2023-03-02T06:37:17.426Z,10.40
2023-03-02T06:40:16.108Z,11.30
2023-03-02T06:43:04.609Z,13.50
2023-03-02T06:45:52.839Z,12.00
2023-03-02T06:48:40.810Z,10.60
2023-03-02T06:51:28.453Z,13.00
2023-03-02T06:54:16.424Z,14.00
2023-03-02T06:57:04.260Z,11.90
2023-03-02T06:59:52.492Z,12.70
2023-03-02T07:02:40.205Z,15.60
2023-03-02T07:05:29.272Z,14.70
2023-03-02T07:08:17.353Z,13.40
2023-03-02T07:11:11.294Z,14.00
2023-03-02T07:14:03.222Z,14.30
2023-03-02T07:16:51.243Z,15.20
2023-03-02T07:19:40.873Z,9.90
2023-03-02T07:22:29.014Z,11.10
2023-03-02T07:25:17.085Z,11.60
2023-03-02T07:28:05.340Z,10.50
2023-03-02T07:30:54.378Z,10.00
2023-03-02T07:33:42.384Z,10.60
2023-03-02T07:36:30.221Z,9.40
2023-03-02T07:39:18.638Z,10.30
2023-03-02T07:42:09.051Z,8.00
2023-03-02T07:44:56.962Z,7.90
2023-03-02T07:47:44.808Z,8.40
2023-03-02T07:50:33.867Z,8.60
2023-03-02T07:53:21.548Z,8.10
2023-03-02T07:56:11.404Z,7.70
2023-03-02T07:58:59.315Z,7.80
2023-03-02T08:01:47.224Z,7.70
2023-03-02T08:04:35.935Z,8.40
2023-03-02T08:07:23.817Z,8.70
2023-03-02T08:10:12.549Z,8.10
2023-03-02T08:13:00.250Z,10.00
2023-03-02T08:15:48.173Z,7.30
2023-03-02T08:18:37.463Z,7.80
2023-03-02T08:21:27.205Z,6.70
2023-03-02T08:24:15.365Z,7.10
2023-03-02T08:27:04.635Z,7.40
2023-03-02T08:29:54.373Z,7.70
2023-03-02T08:32:42.455Z,7.00
2023-03-02T08:35:30.411Z,7.40
2023-03-02T08:38:18.182Z,6.00
2023-03-02T08:41:10.556Z,7.30
2023-03-02T08:43:58.903Z,6.30
2023-03-02T08:46:47.342Z,7.40
2023-03-02T08:49:37.324Z,7.10
2023-03-02T08:52:25.570Z,7.70
2023-03-02T08:55:14.150Z,6.90
2023-03-02T08:58:03.482Z,5.90
2023-03-02T09:00:52.225Z,6.00
2023-03-02T09:03:40.206Z,6.70
2023-03-02T09:06:30.331Z,5.90
2023-03-02T09:09:18.174Z,7.90
2023-03-02T09:12:06.574Z,6.80
2023-03-02T09:14:54.397Z,7.20
2023-03-02T09:17:42.489Z,6.30
2023-03-02T09:20:30.215Z,6.60
2023-03-02T09:23:19.318Z,7.20
2023-03-02T09:26:07.463Z,7.30
2023-03-02T09:28:56.111Z,8.00
2023-03-02T09:31:44.375Z,7.10
2023-03-02T09:34:32.191Z,7.00
2023-03-02T09:37:20.035Z,6.80
2023-03-02T09:40:44.277Z,6.40
2023-03-02T09:43:44.719Z,6.00
2023-03-02T09:47:05.757Z,6.80
2023-03-02T09:50:27.243Z,7.30
2023-03-02T09:53:45.674Z,6.70
2023-03-02T09:56:38.331Z,9.00
2023-03-02T09:59:39.658Z,8.90
2023-03-02T10:02:36.363Z,7.50
2023-03-02T10:05:41.201Z,7.10
2023-03-02T10:08:34.284Z,7.40
2023-03-02T10:11:50.562Z,7.80
2023-03-02T10:14:49.362Z,7.60
2023-03-02T10:18:12.501Z,7.50
2023-03-02T10:21:33.702Z,8.20
2023-03-02T10:24:50.715Z,8.40
2023-03-02T10:27:52.159Z,8.00
2023-03-02T10:30:40.443Z,8.20
2023-03-02T10:33:29.379Z,7.80
2023-03-02T10:36:28.488Z,8.60
2023-03-02T10:39:18.231Z,7.20
2023-03-02T10:42:13.523Z,8.50
2023-03-02T10:45:29.800Z,7.10
2023-03-02T10:48:17.998Z,7.30
2023-03-02T10:51:06.268Z,6.50
2023-03-02T10:54:23.707Z,7.00
2023-03-02T10:57:29.949Z,7.10
2023-03-02T11:00:28.093Z,7.00
2023-03-02T11:03:26.329Z,7.10
2023-03-02T11:06:22.543Z,6.40
2023-03-02T11:09:14.993Z,7.30
2023-03-02T11:12:03.068Z,7.10
2023-03-02T11:15:40.981Z,7.50
2023-03-02T11:18:42.293Z,7.30
2023-03-02T11:21:50.947Z,6.70
2023-03-02T11:24:58.208Z,7.10
2023-03-02T11:27:46.342Z,7.00
2023-03-02T11:30:40.921Z,7.80
2023-03-02T11:34:15.611Z,7.00
2023-03-02T11:37:46.919Z,7.20
2023-03-02T11:40:51.469Z,7.10
2023-03-02T11:43:39.470Z,7.30
2023-03-02T11:46:32.474Z,6.80
2023-03-02T11:49:40.114Z,6.60
2023-03-02T11:52:32.224Z,7.00
2023-03-02T11:55:27.491Z,8.80
2023-03-02T11:58:25.584Z,7.00
2023-03-02T12:01:25.491Z,7.40
2023-03-02T12:04:35.413Z,7.70
2023-03-02T12:07:27.406Z,7.10
2023-03-02T12:10:58.898Z,7.90
2023-03-02T12:14:04.152Z,7.40
2023-03-02T12:16:52.619Z,9.90
2023-03-02T12:19:45.193Z,8.40
2023-03-02T12:22:34.543Z,8.50
2023-03-02T12:25:27.922Z,9.60
2023-03-02T12:28:39.124Z,10.50
2023-03-02T12:31:43.535Z,11.00
2023-03-02T12:34:52.749Z,12.40
2023-03-02T12:38:22.990Z,9.50
2023-03-02T12:41:48.203Z,10.20
2023-03-02T12:44:50.465Z,11.50
2023-03-02T12:47:41.528Z,14.40
2023-03-02T12:50:36.801Z,12.00
2023-03-02T12:53:24.943Z,11.60
2023-03-02T12:56:23.960Z,10.10
2023-03-02T12:59:27.119Z,11.40
2023-03-02T13:02:21.564Z,9.80
2023-03-02T13:05:16.759Z,10.20
2023-03-02T13:08:25.396Z,10.70
2023-03-02T13:11:14.287Z,10.30
2023-03-02T13:14:03.865Z,14.80
2023-03-02T13:17:04.774Z,13.30
2023-03-02T13:19:53.359Z,11.90
2023-03-02T13:22:41.573Z,14.00
2023-03-02T13:25:31.687Z,12.70
2023-03-02T13:28:35.319Z,13.40
2023-03-02T13:31:25.399Z,13.40
2023-03-02T13:34:27.231Z,15.00
2023-03-02T13:37:39.307Z,12.90
2023-03-02T13:40:27.345Z,13.30
2023-03-02T13:43:34.782Z,13.00
2023-03-02T13:46:22.529Z,12.80
2023-03-02T13:49:11.669Z,14.40
2023-03-02T13:52:14.224Z,17.00
2023-03-02T13:55:02.603Z,17.20
2023-03-02T13:57:52.941Z,17.30
2023-03-02T14:00:40.837Z,13.90
2023-03-02T14:03:31.316Z,13.20
2023-03-02T14:06:19.167Z,12.20
2023-03-02T14:09:07.435Z,11.90
2023-03-02T14:11:57.110Z,11.90
2023-03-02T14:14:45.666Z,13.20
2023-03-02T14:17:35.167Z,11.90
2023-03-02T14:20:25.278Z,14.40
2023-03-02T14:23:13.276Z,11.80
2023-03-02T14:26:01.526Z,11.50
2023-03-02T14:28:59.920Z,13.10
2023-03-02T14:32:00.377Z,13.00
2023-03-02T14:34:48.359Z,12.40
2023-03-02T14:37:36.209Z,11.90
2023-03-02T14:40:28.412Z,13.10
2023-03-02T14:43:18.739Z,12.70
2023-03-02T14:46:07.571Z,12.50
2023-03-02T14:48:55.725Z,12.40
2023-03-02T14:51:49.112Z,12.70
2023-03-02T14:54:47.914Z,16.20
2023-03-02T14:57:38.750Z,16.50
2023-03-02T15:00:27.474Z,13.30
2023-03-02T15:03:25.671Z,14.00
2023-03-02T15:06:37.780Z,15.00
2023-03-02T15:09:25.795Z,13.10
2023-03-02T15:12:13.863Z,13.30
2023-03-02T15:15:01.995Z,17.10
2023-03-02T15:17:50.462Z,17.80
2023-03-02T15:20:38.586Z,16.40
2023-03-02T15:23:26.759Z,15.90
2023-03-02T15:26:15.197Z,16.70
2023-03-02T15:29:03.232Z,14.70
2023-03-02T15:31:51.625Z,16.70
2023-03-02T15:34:39.875Z,15.10
2023-03-02T15:37:28.424Z,15.00
2023-03-02T15:40:16.342Z,18.40
2023-03-02T15:43:04.826Z,21.10
2023-03-02T15:45:52.831Z,19.40
2023-03-02T15:48:40.733Z,19.70
2023-03-02T15:51:28.501Z,22.30
2023-03-02T15:54:16.386Z,22.30
2023-03-02T15:57:04.664Z,21.60
2023-03-02T15:59:52.821Z,22.70
2023-03-02T16:02:41.214Z,23.70
2023-03-02T16:05:29.458Z,26.50
2023-03-02T16:08:17.523Z,26.40
2023-03-02T16:11:10.540Z,28.50
2023-03-02T16:13:58.323Z,20.80
2023-03-02T16:16:47.075Z,24.70
2023-03-02T16:19:35.498Z,19.10
2023-03-02T16:22:23.493Z,19.80
2023-03-02T16:25:11.803Z,21.10
2023-03-02T16:27:59.605Z,17.80
2023-03-02T16:30:48.014Z,19.60
2023-03-02T16:33:36.961Z,24.70
2023-03-02T16:36:26.100Z,20.80
2023-03-02T16:39:15.112Z,23.00
2023-03-02T16:42:03.436Z,24.60
2023-03-02T16:44:53.645Z,29.30
2023-03-02T16:47:41.633Z,28.60
2023-03-02T16:50:29.646Z,27.90
2023-03-02T16:53:19.424Z,23.90
2023-03-02T16:56:09.594Z,17.80
2023-03-02T16:58:59.949Z,24.30
2023-03-02T17:01:47.917Z,21.50
2023-03-02T17:04:37.347Z,14.60
2023-03-02T17:07:25.287Z,21.20
2023-03-02T17:10:19.713Z,20.30
2023-03-02T17:13:08.956Z,23.70
2023-03-02T17:15:58.139Z,17.10
2023-03-02T17:18:47.187Z,13.80
2023-03-02T17:21:35.366Z,17.50
2023-03-02T17:24:23.153Z,18.90
2023-03-02T17:27:24.261Z,30.50
2023-03-02T17:30:16.248Z,26.40
2023-03-02T17:33:04.594Z,23.50
2023-03-02T17:35:52.319Z,23.80
2023-03-02T17:38:41.146Z,21.50
2023-03-02T17:41:29.145Z,22.90
2023-03-02T17:44:17.266Z,20.30
2023-03-02T17:47:06.491Z,18.50
2023-03-02T17:49:56.358Z,18.10
2023-03-02T17:52:45.153Z,23.20
2023-03-02T17:55:33.166Z,25.60
2023-03-02T17:58:21.133Z,29.70
2023-03-02T18:01:09.276Z,27.20
2023-03-02T18:03:57.885Z,22.10
2023-03-02T18:06:45.676Z,23.20
2023-03-02T18:09:33.617Z,17.90
2023-03-02T18:12:21.734Z,19.40
2023-03-02T18:15:10.321Z,23.60
2023-03-02T18:17:58.403Z,21.10
2023-03-02T18:20:46.137Z,22.40
2023-03-02T18:23:34.166Z,19.50
2023-03-02T18:26:22.526Z,21.00
2023-03-02T18:29:10.917Z,23.00
2023-03-02T18:31:59.905Z,28.60
2023-03-02T18:34:48.190Z,22.70
2023-03-02T18:37:36.269Z,21.20
2023-03-02T18:40:24.278Z,26.10
2023-03-02T18:43:12.190Z,18.80
2023-03-02T18:46:02.111Z,17.40
2023-03-02T18:48:51.145Z,18.00
2023-03-02T18:51:39.399Z,20.90
2023-03-02T18:54:27.474Z,25.20
2023-03-02T18:57:15.702Z,23.90
2023-03-02T19:00:07.111Z,21.10
2023-03-02T19:02:56.941Z,17.10
2023-03-02T19:05:45.826Z,18.20
2023-03-02T19:08:35.765Z,15.50
2023-03-02T19:11:23.546Z,23.00
2023-03-02T19:14:11.501Z,23.30
2023-03-02T19:16:59.569Z,19.60
2023-03-02T19:19:47.615Z,20.20
2023-03-02T19:22:36.024Z,17.80
2023-03-02T19:25:24.588Z,19.60
2023-03-02T19:28:13.399Z,17.80
2023-03-02T19:31:08.977Z,18.90
2023-03-02T19:33:57.450Z,18.20
2023-03-02T19:36:45.146Z,16.60
2023-03-02T19:39:33.218Z,19.70
2023-03-02T19:42:21.501Z,21.20
2023-03-02T19:45:14.617Z,21.60
2023-03-02T19:48:04.044Z,21.50
2023-03-02T19:50:53.285Z,23.50
2023-03-02T19:53:43.616Z,20.40
2023-03-02T19:56:35.072Z,20.50
2023-03-02T19:59:24.656Z,20.20
2023-03-02T20:02:15.088Z,21.80
2023-03-02T20:05:04.418Z,24.10
2023-03-02T20:07:52.337Z,19.90
2023-03-02T20:10:45.217Z,20.60
2023-03-02T20:13:33.631Z,21.30
2023-03-02T20:16:23.102Z,21.20
2023-03-02T20:19:14.146Z,21.20
2023-03-02T20:22:03.820Z,18.60
2023-03-02T20:24:51.866Z,17.00
2023-03-02T20:27:39.655Z,20.90
2023-03-02T20:30:43.429Z,22.50
2023-03-02T20:33:37.429Z,21.00
2023-03-02T20:36:34.604Z,19.10
2023-03-02T20:39:31.777Z,17.10
2023-03-02T20:42:20.496Z,19.50
2023-03-02T20:45:09.601Z,21.20
2023-03-02T20:47:58.766Z,24.10
2023-03-02T20:50:46.784Z,26.20
2023-03-02T20:53:35.280Z,20.80
2023-03-02T20:56:24.890Z,21.80
2023-03-02T20:59:14.661Z,18.30
2023-03-02T21:02:02.864Z,21.00
2023-03-02T21:04:51.079Z,19.40
2023-03-02T21:07:39.382Z,16.60
2023-03-02T21:10:38.870Z,20.70
2023-03-02T21:13:27.223Z,18.20
2023-03-02T21:16:26.546Z,21.30
2023-03-02T21:19:18.922Z,19.40
2023-03-02T21:22:06.832Z,15.80
2023-03-02T21:24:54.815Z,16.40
2023-03-02T21:27:44.501Z,18.70
2023-03-02T21:30:35.083Z,19.60
2023-03-02T21:33:23.051Z,20.90
2023-03-02T21:36:24.311Z,22.70
2023-03-02T21:39:14.559Z,21.40
2023-03-02T21:42:03.885Z,21.60
2023-03-02T21:44:51.996Z,18.00
2023-03-02T21:47:42.546Z,14.80
2023-03-02T21:50:35.741Z,14.40
2023-03-02T21:53:24.045Z,16.80
2023-03-02T21:56:21.839Z,16.10
2023-03-02T21:59:12.385Z,19.60
2023-03-02T22:02:01.235Z,17.60
2023-03-02T22:04:49.030Z,20.80
2023-03-02T22:07:36.986Z,18.40
2023-03-02T22:11:31.230Z,17.70
2023-03-02T22:14:19.908Z,15.20
2023-03-02T22:17:24.865Z,11.50
2023-03-02T22:20:18.849Z,12.60
2023-03-02T22:23:13.807Z,14.80
2023-03-02T22:26:16.281Z,15.20
2023-03-02T22:29:45.430Z,14.10
2023-03-02T22:32:40.960Z,14.40
2023-03-02T22:35:29.187Z,16.80
2023-03-02T22:38:29.830Z,18.60
2023-03-02T22:41:19.983Z,15.00
2023-03-02T22:44:14.421Z,15.00
2023-03-02T22:47:12.392Z,16.40
2023-03-02T22:50:31.933Z,14.50
2023-03-02T22:53:24.659Z,15.40
2023-03-02T22:56:37.521Z,15.70
2023-03-02T22:59:28.373Z,15.80
2023-03-02T23:02:22.434Z,16.90
2023-03-02T23:05:29.086Z,18.20
2023-03-02T23:08:21.437Z,20.30
2023-03-02T23:11:16.732Z,17.40
2023-03-02T23:14:50.049Z,16.50
2023-03-02T23:17:40.693Z,17.70
2023-03-02T23:20:28.853Z,18.90
2023-03-02T23:23:18.673Z,16.80
2023-03-02T23:26:06.720Z,17.60
2023-03-02T23:28:54.458Z,17.80
2023-03-02T23:31:42.204Z,17.00
2023-03-02T23:34:31.354Z,20.90
2023-03-02T23:37:19.411Z,21.80
2023-03-02T23:40:08.432Z,19.10
2023-03-02T23:42:57.921Z,19.00
2023-03-02T23:45:45.614Z,19.20
2023-03-02T23:48:34.323Z,18.50
2023-03-02T23:51:25.623Z,19.80
2023-03-02T23:54:14.026Z,17.80
2023-03-02T23:57:02.090Z,20.20
2023-03-02T23:59:50.030Z,18.80
